Accueil
METAR-TAF:

METAR-TAF

Aéroports :

Fort-de-France, Martinique

Aéroport international Martinique Aimé Césaire

latitude: 14-36N, longitude: 061-00W, altitude: 5 m

Observation

Le bulletin a été fait il y a 12 minutes, à 11:30 UTC
Vent 13 kt de est
Température 29°C
Humidité 70%
Pression 1017 hPa
Visibilité 10 km ou plus
Quelques nuages à une hauteur de 2500 ft

METAR: TFFF 241130Z AUTO 10013KT 9999 FEW025 29/23 Q1017 NOSIG

Heure: 07:42 (11:42 UTC)

Prévision

Le bulletin a été fait il y a 6 heures et 42 minutes, à 05:00 UTC
Prévision valable du 24 à 06 UTC au 25 à 06 UTC
Vent 10 kt de est
Visibilité 10 km ou plus
Nuages fragmentés à une hauteur de 2400 ft

TAF: TFFF 240500Z 2406/2506 09010KT 9999 BKN024

Observations et prévisions météorologiques de plus de 4000 aéroports (messages METAR et TAF).

Les stations disponibles sont représentées par des disques jaunes et rouges sur la carte.

Passer la souris dessus pour voir le nom de la station.

Cliquer dessus pour voir les observations et prévisions météorologiques.

Pour changer de carte: cliquez sur les boutons verts avec une croix noire pour zoomer, sur le bouton vert avec un tiret pour effectuer un zoom arrière, ou sur les flèches vertes pour les cartes adjacentes.


METAR-TAF: